createdAt,value
2023-02-09T00:00:00.228Z,102456.06
2023-02-09T00:01:04.131Z,102455.19
2023-02-09T00:02:06.674Z,102446.25
2023-02-09T00:03:09.176Z,102441.95
2023-02-09T00:04:11.521Z,102441.95
2023-02-09T00:07:43.648Z,102452.20
2023-02-09T00:08:46.680Z,102449.88
2023-02-09T00:09:50.653Z,102449.90
2023-02-09T00:10:53.491Z,102454.34
2023-02-09T00:12:14.366Z,102446.30
2023-02-09T00:13:23.151Z,102447.22
2023-02-09T00:14:26.312Z,102444.53
2023-02-09T00:15:28.671Z,102445.48
2023-02-09T00:16:31.266Z,102450.84
2023-02-09T00:17:35.393Z,102444.59
2023-02-09T00:18:38.213Z,102443.72
2023-02-09T00:19:41.431Z,102436.55
2023-02-09T00:20:44.246Z,102436.55
2023-02-09T00:21:47.197Z,102443.72
2023-02-09T00:22:50.711Z,102434.81
2023-02-09T00:23:53.144Z,102433.91
2023-02-09T00:24:57.399Z,102428.55
2023-02-09T00:26:01.883Z,102432.13
2023-02-09T00:27:04.388Z,102432.15
2023-02-09T00:28:07.960Z,102428.55
2023-02-09T00:29:10.484Z,102426.79
2023-02-09T00:30:14.643Z,102429.47
2023-02-09T00:31:19.414Z,102430.42
2023-02-09T00:32:23.383Z,102425.05
2023-02-09T00:33:25.686Z,102427.73
2023-02-09T00:34:27.990Z,102425.05
2023-02-09T00:35:30.802Z,102422.38
2023-02-09T00:36:33.224Z,102424.16
2023-02-09T00:37:37.561Z,102429.52
2023-02-09T00:38:40.248Z,102417.19
2023-02-09T00:39:43.106Z,102417.19
2023-02-09T00:40:47.272Z,102421.53
2023-02-09T00:42:09.908Z,102419.75
2023-02-09T00:43:12.382Z,102425.11
2023-02-09T00:44:14.723Z,102426.02
2023-02-09T00:45:17.259Z,102421.53
2023-02-09T00:46:19.645Z,102419.77
2023-02-09T00:47:22.100Z,102421.53
2023-02-09T00:48:24.794Z,102417.98
2023-02-09T00:49:27.960Z,102417.08
2023-02-09T00:50:30.730Z,102414.41
2023-02-09T00:51:33.132Z,102417.08
2023-02-09T00:52:37.414Z,102409.05
2023-02-09T00:53:39.970Z,102416.22
2023-02-09T00:54:42.317Z,102423.34
2023-02-09T00:55:44.639Z,102413.48
2023-02-09T00:56:47.842Z,102412.63
2023-02-09T00:57:50.444Z,102411.72
2023-02-09T00:58:52.899Z,102408.12
2023-02-09T00:59:55.432Z,102411.72
2023-02-09T01:00:57.994Z,102407.27
2023-02-09T01:02:00.502Z,102406.36
2023-02-09T01:03:03.329Z,102409.98
2023-02-09T01:04:05.666Z,102406.36
2023-02-09T01:05:08.495Z,102406.36
2023-02-09T01:06:11.695Z,102417.08
2023-02-09T01:07:14.591Z,102411.72
2023-02-09T01:08:18.067Z,102414.45
2023-02-09T01:09:22.288Z,102411.77
2023-02-09T01:10:24.792Z,102418.95
2023-02-09T01:11:29.195Z,102414.45
2023-02-09T01:12:31.685Z,102405.55
2023-02-09T01:13:34.009Z,102405.55
2023-02-09T01:14:39.257Z,102415.35
2023-02-09T01:15:41.667Z,102409.09
2023-02-09T01:16:44.269Z,102408.23
2023-02-09T01:17:47.194Z,102408.23
2023-02-09T01:18:50.039Z,102404.68
2023-02-09T01:19:55.289Z,102408.23
2023-02-09T01:20:57.898Z,102411.77
2023-02-09T01:22:01.757Z,102410.86
2023-02-09T01:23:04.320Z,102407.31
2023-02-09T01:24:06.968Z,102406.41
2023-02-09T01:25:10.102Z,102406.41
2023-02-09T01:26:13.147Z,102409.98
2023-02-09T01:27:15.966Z,102402.87
2023-02-09T01:28:19.537Z,102406.41
2023-02-09T01:29:22.366Z,102404.62
2023-02-09T01:30:26.583Z,102408.17
2023-02-09T01:31:32.494Z,102402.87
2023-02-09T01:32:36.394Z,102409.09
2023-02-09T01:33:39.311Z,102405.55
2023-02-09T01:34:41.795Z,102400.19
2023-02-09T01:35:44.128Z,102398.38
2023-02-09T01:36:47.967Z,102399.32
2023-02-09T01:37:51.496Z,102395.74
2023-02-09T01:38:56.094Z,102389.52
2023-02-09T01:39:58.605Z,102391.33
2023-02-09T01:41:01.022Z,102393.06
2023-02-09T01:42:04.262Z,102383.24
2023-02-09T01:43:07.143Z,102385.02
2023-02-09T01:44:18.321Z,102385.92
2023-02-09T01:46:38.783Z,102382.86
2023-02-09T01:47:48.826Z,102395.69
2023-02-09T01:50:07.838Z,102398.05
2023-02-09T01:51:10.070Z,102393.06
2023-02-09T01:52:14.822Z,102390.43
2023-02-09T01:53:17.272Z,102400.23
2023-02-09T01:54:25.969Z,102395.74
2023-02-09T01:55:30.315Z,102390.33
2023-02-09T01:56:32.775Z,102390.38
2023-02-09T01:58:53.962Z,102389.14
2023-02-09T01:59:59.489Z,102380.61
2023-02-09T02:01:04.032Z,102375.25
2023-02-09T02:02:07.081Z,102375.25
2023-02-09T02:03:11.555Z,102381.48
2023-02-09T02:04:16.227Z,102377.93
2023-02-09T02:05:18.887Z,102372.57
2023-02-09T02:06:22.272Z,102374.30
2023-02-09T02:07:32.393Z,102370.75
2023-02-09T02:09:55.971Z,102365.02
2023-02-09T02:10:59.986Z,102360.90
2023-02-09T02:12:02.655Z,102362.72
2023-02-09T02:13:05.086Z,102362.72
2023-02-09T02:14:09.762Z,102364.53
2023-02-09T02:15:12.306Z,102371.63
2023-02-09T02:17:47.753Z,102365.06
2023-02-09T02:19:09.112Z,102375.25
2023-02-09T02:20:25.485Z,102368.98
2023-02-09T02:22:05.912Z,102374.35
2023-02-09T02:23:26.241Z,102372.59
2023-02-09T02:24:47.044Z,102374.41
2023-02-09T02:26:16.293Z,102370.91
2023-02-09T02:27:42.361Z,102361.11
2023-02-09T02:29:17.732Z,102362.07
2023-02-09T02:30:30.785Z,102366.55
2023-02-09T02:33:17.260Z,102362.87
2023-02-09T02:34:23.270Z,102358.71
2023-02-09T02:35:38.102Z,102356.95
2023-02-09T02:36:44.345Z,102360.58
2023-02-09T02:37:53.618Z,102362.36
2023-02-09T02:39:19.880Z,102358.77
2023-02-09T02:40:45.318Z,102356.08
2023-02-09T02:42:28.758Z,102354.27
2023-02-09T02:43:56.444Z,102357.00
2023-02-09T02:45:08.835Z,102355.22
2023-02-09T02:46:16.807Z,102357.91
2023-02-09T02:47:19.831Z,102358.86
2023-02-09T02:48:37.257Z,102350.88
2023-02-09T02:49:43.338Z,102350.88
2023-02-09T02:52:27.187Z,102349.66
2023-02-09T02:53:30.289Z,102349.97
2023-02-09T02:55:52.141Z,102345.16
2023-02-09T02:58:11.227Z,102354.10
2023-02-09T02:59:16.245Z,102359.78
2023-02-09T03:00:24.711Z,102357.05
2023-02-09T03:01:29.454Z,102365.03
2023-02-09T03:02:34.700Z,102360.58
2023-02-09T03:03:37.636Z,102355.17
2023-02-09T03:04:40.321Z,102356.89
2023-02-09T03:05:44.033Z,102358.66
2023-02-09T03:06:46.633Z,102353.30
2023-02-09T03:07:49.889Z,102357.75
2023-02-09T03:08:56.075Z,102345.21
2023-02-09T03:09:58.642Z,102345.21
2023-02-09T03:11:01.803Z,102337.12
2023-02-09T03:13:26.823Z,102336.83
2023-02-09T03:16:08.148Z,102338.64
2023-02-09T03:17:20.156Z,102337.12
2023-02-09T03:18:41.705Z,102337.12
2023-02-09T03:21:11.999Z,102330.61
2023-02-09T03:22:29.818Z,102338.94
2023-02-09T03:23:40.797Z,102322.05
2023-02-09T03:24:59.244Z,102334.50
2023-02-09T03:26:05.500Z,102328.27
2023-02-09T03:27:12.419Z,102323.83
2023-02-09T03:29:29.901Z,102323.59
2023-02-09T03:30:33.024Z,102324.75
2023-02-09T03:31:36.476Z,102323.02
2023-02-09T03:32:39.520Z,102318.52
2023-02-09T03:33:42.215Z,102328.37
2023-02-09T03:34:45.601Z,102327.41
2023-02-09T03:35:54.298Z,102318.47
2023-02-09T03:36:56.875Z,102329.14
2023-02-09T03:37:59.990Z,102320.23
2023-02-09T03:39:03.952Z,102322.91
2023-02-09T03:40:07.674Z,102323.78
2023-02-09T03:41:10.603Z,102331.77
2023-02-09T03:42:13.262Z,102332.66
2023-02-09T03:43:16.162Z,102324.63
2023-02-09T03:44:28.054Z,102331.72
2023-02-09T03:45:30.733Z,102319.27
2023-02-09T03:46:33.168Z,102319.22
2023-02-09T03:47:35.831Z,102330.80
2023-02-09T03:48:38.062Z,102325.44
2023-02-09T03:49:42.232Z,102331.73
2023-02-09T03:50:45.172Z,102325.44
2023-02-09T03:51:48.076Z,102328.09
2023-02-09T03:52:50.388Z,102323.64
2023-02-09T03:53:53.262Z,102324.55
2023-02-09T03:54:55.592Z,102329.00
2023-02-09T03:55:58.757Z,102329.86
2023-02-09T03:57:01.226Z,102325.37
2023-02-09T03:58:03.744Z,102331.63
2023-02-09T03:59:06.158Z,102325.37
2023-02-09T04:00:11.145Z,102331.63
2023-02-09T04:01:18.397Z,102323.59
2023-02-09T04:02:20.843Z,102319.99
2023-02-09T04:03:23.633Z,102322.67
2023-02-09T04:04:25.857Z,102322.67
2023-02-09T04:05:28.248Z,102322.67
2023-02-09T04:06:31.572Z,102327.08
2023-02-09T04:07:34.037Z,102334.25
2023-02-09T04:08:37.785Z,102327.08
2023-02-09T04:09:40.241Z,102320.86
2023-02-09T04:10:42.595Z,102320.86
2023-02-09T04:11:46.949Z,102320.80
2023-02-09T04:12:50.577Z,102321.72
2023-02-09T04:13:53.146Z,102319.04
2023-02-09T04:14:55.580Z,102319.94
2023-02-09T04:15:58.564Z,102312.77
2023-02-09T04:17:01.193Z,102317.26
2023-02-09T04:18:04.216Z,102314.58
2023-02-09T04:19:08.671Z,102312.77
2023-02-09T04:20:11.505Z,102312.77
2023-02-09T04:21:13.867Z,102318.13
2023-02-09T04:22:17.176Z,102311.00
2023-02-09T04:23:21.129Z,102312.77
2023-02-09T04:24:23.859Z,102313.62
2023-02-09T04:25:26.644Z,102309.22
2023-02-09T04:26:29.297Z,102307.41
2023-02-09T04:27:31.972Z,102307.45
2023-02-09T04:28:35.094Z,102306.54
2023-02-09T04:29:37.508Z,102304.72
2023-02-09T04:30:41.873Z,102301.18
2023-02-09T04:31:44.344Z,102304.72
2023-02-09T04:32:46.852Z,102304.72
2023-02-09T04:33:49.189Z,102302.91
2023-02-09T04:34:52.557Z,102307.41
2023-02-09T04:35:54.939Z,102306.48
2023-02-09T04:36:58.098Z,102311.84
2023-02-09T04:38:00.572Z,102306.48
2023-02-09T04:39:03.089Z,102304.67
2023-02-09T04:40:07.799Z,102297.55
2023-02-09T04:41:10.660Z,102302.05
2023-02-09T04:42:14.346Z,102294.00
2023-02-09T04:43:17.270Z,102293.14
2023-02-09T04:44:19.777Z,102296.69
2023-02-09T04:45:22.211Z,102296.69
2023-02-09T04:46:25.230Z,102304.72
2023-02-09T04:47:27.725Z,102303.86
2023-02-09T04:48:30.737Z,102300.28
2023-02-09T04:49:33.484Z,102299.42
2023-02-09T04:50:36.087Z,102300.28
2023-02-09T04:51:38.520Z,102301.23
2023-02-09T04:52:44.123Z,102296.73
2023-02-09T04:53:47.693Z,102301.23
2023-02-09T04:54:50.320Z,102294.98
2023-02-09T04:55:53.140Z,102293.20
2023-02-09T04:56:57.861Z,102295.88
2023-02-09T04:58:20.977Z,102293.20
2023-02-09T04:59:35.968Z,102302.09
2023-02-09T05:00:39.901Z,102299.42
2023-02-09T05:01:42.819Z,102300.33
2023-02-09T05:02:47.604Z,102297.66
2023-02-09T05:03:50.876Z,102293.21
2023-02-09T05:04:54.584Z,102303.02
2023-02-09T05:05:59.777Z,102294.11
2023-02-09T05:07:02.130Z,102295.89
2023-02-09T05:08:06.351Z,102293.21
2023-02-09T05:09:09.090Z,102297.70
2023-02-09T05:10:11.985Z,102295.03
2023-02-09T05:11:15.178Z,102298.57
2023-02-09T05:12:17.654Z,102284.31
2023-02-09T05:13:21.067Z,102290.53
2023-02-09T05:14:23.681Z,102286.98
2023-02-09T05:15:26.538Z,102287.85
2023-02-09T05:16:30.270Z,102294.98
2023-02-09T05:17:34.548Z,102279.81
2023-02-09T05:18:37.673Z,102281.63
2023-02-09T05:19:40.555Z,102281.58
2023-02-09T05:20:43.431Z,102279.81
2023-02-09T05:21:46.180Z,102271.77
2023-02-09T05:22:50.182Z,102277.98
2023-02-09T05:23:56.372Z,102275.35
2023-02-09T05:24:58.746Z,102278.03
2023-02-09T05:26:02.113Z,102278.89
2023-02-09T05:27:04.582Z,102280.71
2023-02-09T05:28:06.962Z,102281.58
2023-02-09T05:29:09.544Z,102280.71
2023-02-09T05:30:13.909Z,102281.63
2023-02-09T05:31:17.641Z,102284.36
2023-02-09T05:32:21.217Z,102279.89
2023-02-09T05:33:24.284Z,102276.34
2023-02-09T05:34:26.642Z,102274.58
2023-02-09T05:35:28.875Z,102276.45
2023-02-09T05:36:32.423Z,102273.77
2023-02-09T05:37:34.834Z,102274.69
2023-02-09T05:38:37.151Z,102271.16
2023-02-09T05:39:39.870Z,102269.43
2023-02-09T05:40:44.799Z,102276.57
2023-02-09T05:42:06.233Z,102267.72
2023-02-09T05:43:08.660Z,102275.76
2023-02-09T05:44:11.222Z,102271.42
2023-02-09T05:45:13.453Z,102271.42
2023-02-09T05:46:16.102Z,102269.66
2023-02-09T05:47:20.431Z,102274.15
2023-02-09T05:48:23.921Z,102275.98
2023-02-09T05:49:26.449Z,102270.87
2023-02-09T05:50:30.883Z,102270.87
2023-02-09T05:51:33.437Z,102281.44
2023-02-09T05:52:35.878Z,102283.30
2023-02-09T05:53:38.291Z,102281.55
2023-02-09T05:54:40.735Z,102283.30
2023-02-09T05:55:43.455Z,102287.77
2023-02-09T05:56:59.452Z,102287.77
2023-02-09T05:58:01.928Z,102285.14
2023-02-09T05:59:04.892Z,102284.22
2023-02-09T06:00:08.950Z,102283.33
2023-02-09T06:01:14.842Z,102283.33
2023-02-09T06:02:18.800Z,102277.05
2023-02-09T06:03:21.283Z,102276.23
2023-02-09T06:04:24.385Z,102284.22
2023-02-09T06:05:27.104Z,102289.58
2023-02-09T06:06:29.723Z,102281.55
2023-02-09T06:07:32.337Z,102285.98
2023-02-09T06:08:34.913Z,102287.77
2023-02-09T06:09:37.827Z,102289.53
2023-02-09T06:10:40.436Z,102275.27
2023-02-09T06:11:42.816Z,102280.63
2023-02-09T06:12:46.397Z,102275.27
2023-02-09T06:13:48.968Z,102279.68
2023-02-09T06:14:51.423Z,102284.13
2023-02-09T06:15:53.960Z,102286.80
2023-02-09T06:16:56.387Z,102281.44
2023-02-09T06:17:58.840Z,102286.80
2023-02-09T06:19:01.747Z,102285.88
2023-02-09T06:20:05.216Z,102285.88
2023-02-09T06:21:07.588Z,102288.56
2023-02-09T06:22:10.113Z,102293.92
2023-02-09T06:23:12.573Z,102293.92
2023-02-09T06:24:16.121Z,102293.92
2023-02-09T06:25:18.657Z,102294.78
2023-02-09T06:26:22.108Z,102292.11
2023-02-09T06:27:24.942Z,102295.70
2023-02-09T06:28:27.313Z,102288.56
2023-02-09T06:29:31.060Z,102293.92
2023-02-09T06:30:33.864Z,102285.88
2023-02-09T06:32:39.418Z,102289.38
2023-02-09T06:33:41.886Z,102289.38
2023-02-09T06:34:44.219Z,102294.73
2023-02-09T06:35:46.484Z,102296.50
2023-02-09T06:36:48.934Z,102299.12
2023-02-09T06:37:51.963Z,102287.55
2023-02-09T06:38:54.732Z,102289.27
2023-02-09T06:39:58.345Z,102298.21
2023-02-09T06:41:01.839Z,102296.45
2023-02-09T06:42:04.574Z,102291.95
2023-02-09T06:43:07.332Z,102297.31
2023-02-09T06:45:23.612Z,102297.88
2023-02-09T06:46:26.133Z,102299.07
2023-02-09T06:47:30.139Z,102295.53
2023-02-09T06:48:32.432Z,102295.53
2023-02-09T06:49:36.058Z,102297.30
2023-02-09T06:50:39.882Z,102290.13
2023-02-09T06:51:42.812Z,102287.44
2023-02-09T06:52:46.338Z,102296.34
2023-02-09T06:53:50.741Z,102290.94
2023-02-09T06:54:53.094Z,102289.16
2023-02-09T06:56:00.808Z,102289.16
2023-02-09T06:57:03.451Z,102281.98
2023-02-09T06:58:06.745Z,102286.47
2023-02-09T06:59:10.154Z,102287.34
2023-02-09T07:00:14.764Z,102281.98
2023-02-09T07:01:19.183Z,102278.54
2023-02-09T07:02:22.007Z,102284.66
2023-02-09T07:03:26.196Z,102286.42
2023-02-09T07:04:28.582Z,102285.56
2023-02-09T07:05:30.992Z,102292.70
2023-02-09T07:06:34.763Z,102287.34
2023-02-09T07:07:37.708Z,102300.73
2023-02-09T07:08:40.774Z,102292.70
2023-02-09T07:09:43.762Z,102299.81
2023-02-09T07:10:46.485Z,102298.95
2023-02-09T07:11:49.060Z,102293.59
2023-02-09T07:12:51.760Z,102291.78
2023-02-09T07:13:54.462Z,102295.33
2023-02-09T07:14:57.255Z,102306.05
2023-02-09T07:16:00.349Z,102302.50
2023-02-09T07:17:02.832Z,102295.33
2023-02-09T07:18:06.573Z,102298.95
2023-02-09T07:19:09.761Z,102298.05
2023-02-09T07:20:13.372Z,102298.91
2023-02-09T07:21:17.765Z,102303.36
2023-02-09T07:22:20.408Z,102299.77
2023-02-09T07:23:22.793Z,102299.81
2023-02-09T07:24:27.106Z,102291.78
2023-02-09T07:25:31.464Z,102291.78
2023-02-09T07:26:34.724Z,102293.55
2023-02-09T07:27:37.623Z,102293.55
2023-02-09T07:28:40.009Z,102293.55
2023-02-09T07:29:42.424Z,102301.58
2023-02-09T07:30:46.479Z,102302.50
2023-02-09T07:31:50.152Z,102304.27
2023-02-09T07:32:52.503Z,102299.77
2023-02-09T07:33:56.526Z,102298.91
2023-02-09T07:34:58.911Z,102295.27
2023-02-09T07:36:10.000Z,102294.41
2023-02-09T07:37:13.017Z,102288.13
2023-02-09T07:38:16.007Z,102292.58
2023-02-09T07:39:18.432Z,102290.81
2023-02-09T07:40:20.960Z,102289.00
2023-02-09T07:41:27.342Z,102279.41
2023-02-09T07:42:29.635Z,102279.41
2023-02-09T07:43:34.037Z,102289.05
2023-02-09T07:44:37.495Z,102297.95
2023-02-09T07:45:40.305Z,102289.10
2023-02-09T07:46:43.807Z,102289.97
2023-02-09T07:47:46.255Z,102288.23
2023-02-09T07:48:49.361Z,102288.23
2023-02-09T07:49:52.483Z,102283.80
2023-02-09T07:50:55.116Z,102287.34
2023-02-09T07:51:58.267Z,102286.47
2023-02-09T07:53:02.179Z,102275.81
2023-02-09T07:54:07.401Z,102284.71
2023-02-09T07:55:13.002Z,102289.20
2023-02-09T07:56:16.945Z,102285.62
2023-02-09T07:57:19.387Z,102282.08
2023-02-09T07:58:23.133Z,102279.41
2023-02-09T07:59:25.770Z,102278.54
2023-02-09T08:00:28.722Z,102275.88
2023-02-09T08:01:32.487Z,102286.58
2023-02-09T08:02:38.023Z,102276.78
2023-02-09T08:03:43.141Z,102274.09
2023-02-09T08:04:45.731Z,102275.86
2023-02-09T08:05:58.111Z,102275.02
2023-02-09T08:07:00.591Z,102273.20
2023-02-09T08:08:03.253Z,102267.84
2023-02-09T08:09:06.410Z,102273.20
2023-02-09T08:10:09.774Z,102274.15
2023-02-09T08:11:12.248Z,102276.83
2023-02-09T08:12:16.031Z,102283.97
2023-02-09T08:13:18.638Z,102276.83
2023-02-09T08:15:45.959Z,102279.17
2023-02-09T08:16:50.483Z,102277.75
2023-02-09T08:17:56.085Z,102267.03
2023-02-09T08:19:02.727Z,102274.20
2023-02-09T08:20:10.286Z,102269.70
2023-02-09T08:22:17.468Z,102267.95
2023-02-09T08:23:29.921Z,102265.31
2023-02-09T08:24:32.412Z,102267.95
2023-02-09T08:25:36.333Z,102267.08
2023-02-09T08:26:39.170Z,102269.76
2023-02-09T08:27:42.760Z,102266.16
2023-02-09T08:28:46.956Z,102263.44
2023-02-09T08:29:50.263Z,102266.98
2023-02-09T08:30:53.113Z,102264.30
2023-02-09T08:31:55.733Z,102266.06
2023-02-09T08:32:58.977Z,102274.09
2023-02-09T08:34:01.414Z,102263.38
2023-02-09T08:35:04.975Z,102275.86
2023-02-09T08:36:08.274Z,102265.14
2023-02-09T08:37:11.491Z,102257.11
2023-02-09T08:38:14.984Z,102270.50
2023-02-09T08:39:18.141Z,102266.92
2023-02-09T08:40:21.035Z,102266.92
2023-02-09T08:41:23.479Z,102260.70
2023-02-09T08:42:25.832Z,102258.02
2023-02-09T08:43:28.548Z,102268.73
2023-02-09T08:44:31.720Z,102264.25
2023-02-09T08:45:37.557Z,102267.83
2023-02-09T08:46:40.412Z,102259.78
2023-02-09T08:47:44.434Z,102260.66
2023-02-09T08:48:48.656Z,102260.66
2023-02-09T08:49:53.231Z,102258.89
2023-02-09T08:50:56.512Z,102259.78
2023-02-09T08:51:59.145Z,102257.97
2023-02-09T08:53:05.156Z,102262.47
2023-02-09T08:54:08.129Z,102265.14
2023-02-09T08:55:11.044Z,102258.89
2023-02-09T08:56:15.875Z,102260.70
2023-02-09T08:57:24.207Z,102254.42
2023-02-09T08:58:27.875Z,102258.89
2023-02-09T08:59:31.751Z,102252.66
2023-02-09T09:00:34.996Z,102258.02
2023-02-09T09:01:39.674Z,102258.89
2023-02-09T09:02:42.772Z,102258.89
2023-02-09T09:03:47.694Z,102262.47
2023-02-09T09:04:53.965Z,102258.02
2023-02-09T09:07:13.160Z,102252.33
2023-02-09T09:08:15.905Z,102249.09
2023-02-09T09:09:21.773Z,102245.55
2023-02-09T09:10:25.010Z,102248.22
2023-02-09T09:11:30.736Z,102248.22
2023-02-09T09:12:40.118Z,102244.63
2023-02-09T09:13:43.430Z,102235.69
2023-02-09T09:14:46.279Z,102235.69
2023-02-09T09:15:51.920Z,102233.91
2023-02-09T09:16:58.162Z,102229.42
2023-02-09T09:18:01.349Z,102226.73
2023-02-09T09:19:05.141Z,102237.41
2023-02-09T09:20:09.177Z,102222.28
2023-02-09T09:21:13.397Z,102222.28
2023-02-09T09:22:18.051Z,102217.78
2023-02-09T09:23:22.913Z,102218.66
2023-02-09T09:24:30.676Z,102215.11
2023-02-09T09:25:42.597Z,102217.78
2023-02-09T09:26:47.473Z,102215.11
2023-02-09T09:27:50.546Z,102213.30
2023-02-09T09:28:55.512Z,102207.07
2023-02-09T09:30:02.991Z,102207.07
2023-02-09T09:31:17.583Z,102204.39
2023-02-09T09:32:24.242Z,102199.90
2023-02-09T09:34:42.789Z,102187.97
2023-02-09T09:35:47.379Z,102194.54
2023-02-09T09:36:50.555Z,102188.42
2023-02-09T09:37:57.549Z,102192.02
2023-02-09T09:39:02.036Z,102177.84
2023-02-09T09:40:06.328Z,102180.52
2023-02-09T09:41:25.043Z,102180.57
2023-02-09T09:42:31.992Z,102181.55
2023-02-09T09:43:37.267Z,102176.29
2023-02-09T09:44:45.612Z,102175.48
2023-02-09T09:45:50.032Z,102169.28
2023-02-09T09:47:03.574Z,102166.66
2023-02-09T09:48:08.289Z,102178.28
2023-02-09T09:50:33.625Z,102163.81
2023-02-09T09:51:41.843Z,102168.64
2023-02-09T09:52:47.819Z,102165.16
2023-02-09T09:53:51.588Z,102164.26
2023-02-09T09:54:54.065Z,102160.77
2023-02-09T09:55:59.169Z,102160.77
2023-02-09T09:57:01.763Z,102150.06
2023-02-09T09:58:06.052Z,102161.64
2023-02-09T10:00:35.556Z,102164.13
2023-02-09T10:01:38.502Z,102160.03
2023-02-09T10:02:42.045Z,102153.86
2023-02-09T10:03:44.529Z,102152.10
2023-02-09T10:04:48.835Z,102157.45
2023-02-09T10:05:58.039Z,102159.27
2023-02-09T10:07:02.108Z,102158.38
2023-02-09T10:08:25.162Z,102147.72
2023-02-09T10:09:34.985Z,102146.85
2023-02-09T10:10:59.473Z,102142.41
2023-02-09T10:13:25.965Z,102147.48
2023-02-09T10:14:30.649Z,102148.73
2023-02-09T10:15:37.143Z,102141.67
2023-02-09T10:16:40.425Z,102136.38
2023-02-09T10:17:48.404Z,102138.19
2023-02-09T10:18:58.326Z,102136.42
2023-02-09T10:20:05.574Z,102141.78
2023-02-09T10:22:24.492Z,102133.47
2023-02-09T10:23:30.135Z,102132.93
2023-02-09T10:24:34.822Z,102128.49
2023-02-09T10:27:07.799Z,102118.37
2023-02-09T10:28:23.058Z,102125.87
2023-02-09T10:29:26.251Z,102117.89
2023-02-09T10:30:30.005Z,102120.56
2023-02-09T10:31:39.465Z,102113.41
2023-02-09T10:32:43.437Z,102111.64
2023-02-09T10:33:46.583Z,102118.76
2023-02-09T10:34:56.713Z,102116.97
2023-02-09T10:36:01.455Z,102111.63
2023-02-09T10:37:13.550Z,102109.81
2023-02-09T10:38:18.149Z,102113.30
2023-02-09T10:39:28.345Z,102109.70
2023-02-09T10:40:33.105Z,102115.91
2023-02-09T10:41:35.689Z,102110.50
2023-02-09T10:42:55.517Z,102105.09
2023-02-09T10:43:57.935Z,102104.13
2023-02-09T10:46:28.722Z,102104.44
2023-02-09T10:47:32.407Z,102100.31
2023-02-09T10:48:42.842Z,102100.21
2023-02-09T10:50:12.744Z,102100.21
2023-02-09T10:51:25.590Z,102097.42
2023-02-09T10:52:33.769Z,102085.80
2023-02-09T10:53:38.202Z,102091.09
2023-02-09T10:56:08.919Z,102092.45
2023-02-09T10:57:31.560Z,102083.85
2023-02-09T10:58:35.658Z,102089.10
2023-02-09T10:59:38.045Z,102080.20
2023-02-09T11:02:30.137Z,102083.28
2023-02-09T11:03:32.786Z,102090.75
2023-02-09T11:04:40.333Z,102079.12
2023-02-09T11:05:43.447Z,102076.44
2023-02-09T11:08:21.385Z,102071.48
2023-02-09T11:09:36.628Z,102070.05
2023-02-09T11:10:42.702Z,102070.86
2023-02-09T11:11:46.644Z,102061.01
2023-02-09T11:12:50.247Z,102061.01
2023-02-09T11:13:53.797Z,102063.66
2023-02-09T11:14:57.340Z,102071.64
2023-02-09T11:16:09.693Z,102065.34
2023-02-09T11:18:29.142Z,102068.80
2023-02-09T11:19:54.244Z,102067.87
2023-02-09T11:22:36.801Z,102056.73
2023-02-09T11:25:18.929Z,102053.16
2023-02-09T11:28:02.724Z,102040.66
2023-02-09T11:29:26.749Z,102047.25
2023-02-09T11:32:28.706Z,102038.84
2023-02-09T11:35:13.470Z,102037.03
2023-02-09T11:36:44.326Z,102032.08
2023-02-09T11:38:01.143Z,102016.48
2023-02-09T11:39:19.071Z,102033.86
2023-02-09T11:40:29.179Z,102024.96
2023-02-09T11:41:54.007Z,102030.27
2023-02-09T11:43:03.383Z,102030.27
2023-02-09T11:44:05.762Z,102024.91
2023-02-09T11:45:18.664Z,102024.91
2023-02-09T11:46:22.368Z,102025.77
2023-02-09T11:48:45.484Z,102019.97
2023-02-09T11:49:50.741Z,102024.78
2023-02-09T11:51:00.464Z,102024.78
2023-02-09T11:52:04.602Z,102021.19
2023-02-09T11:53:31.648Z,102022.95
2023-02-09T11:54:41.119Z,102034.47
2023-02-09T11:55:50.039Z,102025.51
2023-02-09T11:56:57.131Z,102016.55
2023-02-09T11:58:10.205Z,102004.34
2023-02-09T11:59:27.969Z,102002.55
2023-02-09T12:00:42.396Z,101997.38
2023-02-09T12:01:58.554Z,101998.22
2023-02-09T12:03:11.783Z,102008.60
2023-02-09T12:04:41.419Z,102011.22
2023-02-09T12:07:04.585Z,102014.32
2023-02-09T12:08:26.544Z,102013.11
2023-02-09T12:09:41.879Z,102007.19
2023-02-09T12:10:50.744Z,102008.33
2023-02-09T12:12:08.974Z,101999.72
2023-02-09T12:13:30.497Z,102004.59
2023-02-09T12:15:01.773Z,102006.70
2023-02-09T12:16:15.529Z,102008.00
2023-02-09T12:17:30.496Z,102006.59
2023-02-09T12:18:34.371Z,102003.55
2023-02-09T12:19:38.040Z,102000.47
2023-02-09T12:20:55.004Z,102010.89
2023-02-09T12:22:20.771Z,102007.92
2023-02-09T12:23:37.726Z,102002.24
2023-02-09T12:24:40.210Z,102009.02
2023-02-09T12:27:25.519Z,102003.56
2023-02-09T12:28:34.517Z,102003.72
2023-02-09T12:29:39.234Z,102000.80
2023-02-09T12:30:48.652Z,102001.45
2023-02-09T12:32:08.592Z,101994.09
2023-02-09T12:33:20.309Z,101995.68
2023-02-09T12:34:26.238Z,101994.53
2023-02-09T12:35:37.708Z,101994.40
2023-02-09T12:36:44.549Z,101998.72
2023-02-09T12:38:20.021Z,101990.52
2023-02-09T12:39:24.961Z,101985.87
2023-02-09T12:40:36.703Z,101990.14
2023-02-09T12:41:46.885Z,101992.70
2023-02-09T12:42:56.826Z,101984.48
2023-02-09T12:44:12.752Z,101988.86
2023-02-09T12:45:36.301Z,101994.10
2023-02-09T12:46:50.300Z,101991.37
2023-02-09T12:49:16.228Z,101986.30
2023-02-09T12:51:53.044Z,101987.88
2023-02-09T12:53:22.710Z,101976.63
2023-02-09T12:54:47.144Z,101977.46
2023-02-09T12:56:12.570Z,101985.38
2023-02-09T12:57:20.145Z,101984.40
2023-02-09T12:58:46.631Z,101986.09
2023-02-09T13:00:04.792Z,101981.59
2023-02-09T13:01:08.521Z,101978.85
2023-02-09T13:02:13.173Z,101973.48
2023-02-09T13:03:19.104Z,101973.37
2023-02-09T13:04:22.627Z,101976.05
2023-02-09T13:05:33.143Z,101975.98
2023-02-09T13:06:46.397Z,101969.70
2023-02-09T13:08:16.296Z,101973.22
2023-02-09T13:09:34.285Z,101978.52
2023-02-09T13:10:52.786Z,101974.02
2023-02-09T13:12:02.246Z,101969.48
2023-02-09T13:13:14.694Z,101967.66
2023-02-09T13:14:17.285Z,101972.10
2023-02-09T13:15:20.671Z,101967.60
2023-02-09T13:16:26.894Z,101971.15
2023-02-09T13:17:50.837Z,101964.00
2023-02-09T13:19:18.596Z,101961.25
2023-02-09T13:20:48.317Z,101966.55
2023-02-09T13:22:17.417Z,101962.02
2023-02-09T13:23:36.520Z,101962.95
2023-02-09T13:24:44.810Z,101970.93
2023-02-09T13:25:47.877Z,101965.56
2023-02-09T13:26:55.819Z,101956.66
2023-02-09T13:29:22.143Z,101960.66
2023-02-09T13:30:31.056Z,101961.06
2023-02-09T13:31:39.274Z,101956.59
2023-02-09T13:33:16.827Z,101961.00